createdAt,value
2018-07-07T00:02:26.319Z,98688.63
2018-07-07T00:04:58.284Z,98690.55
2018-07-07T00:07:27.848Z,98693.33
2018-07-07T00:09:57.341Z,98690.30
2018-07-07T00:12:26.866Z,98685.72
2018-07-07T00:14:56.613Z,98689.69
2018-07-07T00:17:26.121Z,98695.20
2018-07-07T00:19:55.577Z,98693.73
2018-07-07T00:22:25.294Z,98688.81
2018-07-07T00:24:55.413Z,98688.95
2018-07-07T00:27:24.810Z,98686.17
2018-07-07T00:29:54.306Z,98679.94
2018-07-07T00:32:23.837Z,98686.48
2018-07-07T00:34:53.225Z,98682.03
2018-07-07T00:37:23.083Z,98684.58
2018-07-07T00:39:55.002Z,98688.58
2018-07-07T00:42:24.485Z,98687.39
2018-07-07T00:44:53.904Z,98698.05
2018-07-07T00:47:23.533Z,98697.67
2018-07-07T00:49:52.974Z,98691.58
2018-07-07T00:52:22.630Z,98687.32
2018-07-07T00:54:53.612Z,98696.84
2018-07-07T00:57:23.523Z,98693.22
2018-07-07T00:59:53.229Z,98698.88
2018-07-07T01:02:23.794Z,98698.94
2018-07-07T01:04:54.421Z,98702.78
2018-07-07T01:07:24.453Z,98699.17
2018-07-07T01:09:58.185Z,98696.28
2018-07-07T01:12:27.719Z,98698.94
2018-07-07T01:14:57.205Z,98693.55
2018-07-07T01:17:26.673Z,98701.98
2018-07-07T01:19:56.236Z,98704.39
2018-07-07T01:22:25.728Z,98705.47
2018-07-07T01:24:56.378Z,98702.92
2018-07-07T01:27:25.922Z,98708.80
2018-07-07T01:29:55.998Z,98704.13
2018-07-07T01:32:25.698Z,98707.35
2018-07-07T01:34:55.288Z,98710.43
2018-07-07T01:37:24.973Z,98704.78
2018-07-07T01:40:00.435Z,98707.27
2018-07-07T01:42:30.147Z,98707.86
2018-07-07T01:44:59.752Z,98705.19
2018-07-07T01:47:29.429Z,98700.64
2018-07-07T01:49:59.750Z,98705.87
2018-07-07T01:52:29.390Z,98703.37
2018-07-07T01:54:59.001Z,98706.13
2018-07-07T01:57:28.779Z,98697.87
2018-07-07T02:00:03.124Z,98649.57
2018-07-07T02:02:33.002Z,98701.86
2018-07-07T02:05:05.613Z,98704.02
2018-07-07T02:07:35.144Z,98708.06
2018-07-07T02:10:04.602Z,98704.58
2018-07-07T02:12:34.266Z,98700.53
2018-07-07T02:15:19.965Z,98706.23
2018-07-07T02:17:49.502Z,98705.52
2018-07-07T02:20:19.766Z,98710.24
2018-07-07T02:22:49.380Z,98713.26
2018-07-07T02:25:38.724Z,98715.52
2018-07-07T02:28:08.391Z,98720.31
2018-07-07T02:30:38.036Z,98718.31
2018-07-07T02:33:24.573Z,98718.66
2018-07-07T02:35:54.537Z,98720.27
2018-07-07T02:38:52.383Z,98718.36
2018-07-07T02:41:22.285Z,98721.76
2018-07-07T02:43:53.022Z,98721.89
2018-07-07T02:46:24.215Z,98721.80
2018-07-07T02:48:53.810Z,98725.38
2018-07-07T02:51:26.201Z,98713.89
2018-07-07T02:53:55.993Z,98724.91
2018-07-07T02:56:25.716Z,98724.27
2018-07-07T02:58:55.348Z,98723.42
2018-07-07T03:01:25.578Z,98725.67
2018-07-07T03:03:55.064Z,98727.92
2018-07-07T03:06:25.117Z,98729.50
2018-07-07T03:08:55.020Z,98732.94
2018-07-07T03:11:33.462Z,98732.12
2018-07-07T03:14:03.035Z,98730.13
2018-07-07T03:16:32.510Z,98732.94
2018-07-07T03:19:02.047Z,98733.73
2018-07-07T03:21:36.360Z,98735.61
2018-07-07T03:24:06.952Z,98730.77
2018-07-07T03:26:36.484Z,98737.66
2018-07-07T03:29:06.069Z,98735.44
2018-07-07T03:31:36.982Z,98740.96
2018-07-07T03:34:06.561Z,98740.37
2018-07-07T03:36:36.426Z,98740.58
2018-07-07T03:39:07.385Z,98745.84
2018-07-07T03:41:36.894Z,98741.61
2018-07-07T03:44:06.493Z,98749.42
2018-07-07T03:46:36.309Z,98744.23
2018-07-07T03:49:05.972Z,98756.98
2018-07-07T03:51:35.534Z,98753.50
2018-07-07T03:54:05.385Z,98756.84
2018-07-07T03:56:34.801Z,98757.77
2018-07-07T03:59:04.657Z,98745.25
2018-07-07T04:01:40.838Z,98745.97
2018-07-07T04:04:10.417Z,98745.64
2018-07-07T04:06:39.902Z,98753.79
2018-07-07T04:09:09.506Z,98751.50
2018-07-07T04:11:45.977Z,98750.39
2018-07-07T04:14:15.473Z,98752.91
2018-07-07T04:16:44.980Z,98751.33
2018-07-07T04:19:14.685Z,98747.26
2018-07-07T04:21:45.408Z,98749.00
2018-07-07T04:24:15.325Z,98747.47
2018-07-07T04:26:44.812Z,98749.30
2018-07-07T04:29:14.351Z,98752.31
2018-07-07T04:31:43.851Z,98750.53
2018-07-07T04:34:13.282Z,98755.59
2018-07-07T04:36:47.578Z,98745.52
2018-07-07T04:39:17.071Z,98745.72
2018-07-07T04:41:46.573Z,98748.95
2018-07-07T04:44:16.083Z,98749.12
2018-07-07T04:46:45.694Z,98752.13
2018-07-07T04:49:15.128Z,98753.48
2018-07-07T04:51:44.721Z,98751.70
2018-07-07T04:54:14.828Z,98753.31
2018-07-07T04:56:44.613Z,98757.77
2018-07-07T04:59:15.670Z,98756.73
2018-07-07T05:01:45.190Z,98753.03
2018-07-07T05:04:14.841Z,98752.03
2018-07-07T05:06:46.054Z,98759.72
2018-07-07T05:09:16.154Z,98756.04
2018-07-07T05:11:45.756Z,98758.70
2018-07-07T05:14:15.766Z,98761.81
2018-07-07T05:16:46.410Z,98761.90
2018-07-07T05:19:18.250Z,98763.75
2018-07-07T05:21:47.638Z,98764.02
2018-07-07T05:24:18.362Z,98761.80
2018-07-07T05:26:47.882Z,98766.87
2018-07-07T05:29:21.992Z,98762.00
2018-07-07T05:32:06.646Z,98765.86
2018-07-07T05:34:46.023Z,98764.70
2018-07-07T05:38:00.208Z,98771.59
2018-07-07T05:40:43.398Z,98738.05
2018-07-07T05:46:19.847Z,98769.95
2018-07-07T05:57:49.736Z,98771.38
2018-07-07T06:00:31.038Z,98772.28
2018-07-07T06:03:21.729Z,98771.53
2018-07-07T06:08:53.092Z,98772.38
2018-07-07T06:11:23.437Z,98775.70
2018-07-07T06:13:54.151Z,98776.63
2018-07-07T06:16:24.204Z,98775.23
2018-07-07T06:18:54.541Z,98778.52
2018-07-07T06:21:24.391Z,98775.98
2018-07-07T06:23:54.794Z,98783.41
2018-07-07T06:26:39.494Z,98783.58
2018-07-07T06:29:09.713Z,98786.03
2018-07-07T06:31:40.411Z,98787.31
2018-07-07T06:34:10.666Z,98787.12
2018-07-07T06:36:40.363Z,98787.22
2018-07-07T06:39:10.076Z,98789.19
2018-07-07T06:41:43.260Z,98796.44
2018-07-07T06:44:18.204Z,98789.42
2018-07-07T06:46:58.457Z,98793.91
2018-07-07T06:49:33.706Z,98795.33
2018-07-07T06:54:51.886Z,98802.93
2018-07-07T07:00:29.323Z,98805.31
2018-07-07T07:02:58.918Z,98807.75
2018-07-07T07:05:28.485Z,98805.31
2018-07-07T07:08:01.883Z,98801.31
2018-07-07T07:10:34.881Z,98805.02
2018-07-07T07:13:10.430Z,98802.38
2018-07-07T07:15:44.479Z,98801.50
2018-07-07T07:18:24.493Z,98797.59
2018-07-07T07:20:56.679Z,98800.08
2018-07-07T07:23:29.179Z,98796.19
2018-07-07T07:26:09.179Z,98794.95
2018-07-07T07:28:40.113Z,98793.19
2018-07-07T07:31:18.661Z,98790.61
2018-07-07T07:33:51.706Z,98792.01
2018-07-07T07:36:40.960Z,98789.31
2018-07-07T07:39:11.277Z,98793.09
2018-07-07T07:44:24.187Z,98792.95
2018-07-07T07:46:53.960Z,98794.92
2018-07-07T07:49:26.201Z,98788.36
2018-07-07T07:51:56.412Z,98786.25
2018-07-07T07:54:26.464Z,98785.78
2018-07-07T07:56:56.600Z,98784.69
2018-07-07T07:59:26.984Z,98787.49
2018-07-07T08:01:56.776Z,98793.22
2018-07-07T08:04:28.675Z,98781.67
2018-07-07T08:06:58.818Z,98785.47
2018-07-07T08:09:28.618Z,98781.64
2018-07-07T08:11:58.434Z,98781.39
2018-07-07T08:14:28.263Z,98784.34
2018-07-07T08:17:01.158Z,98786.98
2018-07-07T08:19:32.409Z,98782.59
2018-07-07T08:22:02.841Z,98783.08
2018-07-07T08:24:34.657Z,98782.83
2018-07-07T08:27:07.158Z,98787.16
2018-07-07T08:29:37.179Z,98787.73
2018-07-07T08:32:21.229Z,98782.58
2018-07-07T08:37:30.642Z,98788.81
2018-07-07T08:40:01.023Z,98786.94
2018-07-07T08:42:31.410Z,98786.45
2018-07-07T08:45:02.180Z,98781.39
2018-07-07T08:47:32.318Z,98781.06
2018-07-07T08:50:17.483Z,98786.09
2018-07-07T08:53:07.669Z,98789.83
2018-07-07T08:58:39.769Z,98788.07
2018-07-07T09:01:10.793Z,98790.05
2018-07-07T09:03:41.195Z,98783.53
2018-07-07T09:06:11.538Z,98786.38
2018-07-07T09:08:41.445Z,98786.34
2018-07-07T09:11:12.064Z,98782.05
2018-07-07T09:13:42.521Z,98783.09
2018-07-07T09:16:12.837Z,98779.77
2018-07-07T09:18:54.120Z,98778.52
2018-07-07T09:21:24.094Z,98784.38
2018-07-07T09:23:54.667Z,98780.75
2018-07-07T09:26:33.538Z,98777.75
2018-07-07T09:29:04.123Z,98777.19
2018-07-07T09:31:39.250Z,98769.63
2018-07-07T09:34:12.611Z,98768.39
2018-07-07T09:36:43.892Z,98781.98
2018-07-07T09:39:14.384Z,98782.67
2018-07-07T09:41:53.743Z,98786.88
2018-07-07T09:44:25.060Z,98787.64
2018-07-07T09:46:55.702Z,98788.52
2018-07-07T09:49:26.411Z,98778.64
2018-07-07T09:52:02.631Z,98779.91
2018-07-07T09:54:33.718Z,98785.79
2018-07-07T09:57:04.059Z,98773.36
2018-07-07T09:59:36.683Z,98779.36
2018-07-07T10:02:06.908Z,98770.73
2018-07-07T10:04:37.723Z,98778.88
2018-07-07T10:07:07.630Z,98791.34
2018-07-07T10:09:41.453Z,98790.14
2018-07-07T10:12:11.498Z,98791.96
2018-07-07T10:14:42.723Z,98789.66
2018-07-07T10:17:13.803Z,98785.39
2018-07-07T10:19:45.160Z,98775.69
2018-07-07T10:22:15.614Z,98782.60
2018-07-07T10:24:45.506Z,98774.77
2018-07-07T10:27:16.379Z,98779.74
2018-07-07T10:29:56.217Z,98775.80
2018-07-07T10:32:27.724Z,98779.16
2018-07-07T10:34:58.147Z,98786.67
2018-07-07T10:37:33.925Z,98786.73
2018-07-07T10:40:05.136Z,98776.96
2018-07-07T10:42:39.104Z,98780.86
2018-07-07T10:45:10.062Z,98777.61
2018-07-07T10:47:40.985Z,98775.41
2018-07-07T10:50:13.962Z,98771.00
2018-07-07T10:52:44.840Z,98773.67
2018-07-07T10:55:21.070Z,98777.28
2018-07-07T10:57:51.085Z,98773.23
2018-07-07T11:00:25.732Z,98772.58
2018-07-07T11:02:58.039Z,98772.16
2018-07-07T11:05:30.361Z,98765.73
2018-07-07T11:11:04.321Z,98757.07
2018-07-07T11:13:34.543Z,98764.35
2018-07-07T11:16:04.448Z,98759.84
2018-07-07T11:18:33.937Z,98759.44
2018-07-07T11:21:05.071Z,98752.30
2018-07-07T11:23:36.700Z,98748.64
2018-07-07T11:26:06.603Z,98757.35
2018-07-07T11:28:36.516Z,98750.16
2018-07-07T11:31:06.285Z,98749.70
2018-07-07T11:33:35.871Z,98751.59
2018-07-07T11:36:10.510Z,98749.96
2018-07-07T11:38:40.147Z,98744.26
2018-07-07T11:41:11.114Z,98746.52
2018-07-07T11:43:40.978Z,98745.95
2018-07-07T11:46:10.716Z,98744.16
2018-07-07T11:48:40.533Z,98741.88
2018-07-07T11:51:10.161Z,98747.05
2018-07-07T11:53:44.739Z,98738.53
2018-07-07T11:56:15.422Z,98735.32
2018-07-07T11:58:46.928Z,98744.56
2018-07-07T12:01:20.565Z,98752.06
2018-07-07T12:03:51.886Z,98755.66
2018-07-07T12:09:43.141Z,98737.80
2018-07-07T12:12:14.055Z,98738.36
2018-07-07T12:14:44.062Z,98732.47
2018-07-07T12:17:14.013Z,98725.09
2018-07-07T12:19:48.231Z,98720.02
2018-07-07T12:22:20.230Z,98728.45
2018-07-07T12:24:56.736Z,98725.89
2018-07-07T12:27:26.427Z,98725.22
2018-07-07T12:29:56.271Z,98728.81
2018-07-07T12:32:25.994Z,98717.62
2018-07-07T12:34:58.282Z,98732.16
2018-07-07T12:37:28.146Z,98715.87
2018-07-07T12:40:00.486Z,98712.98
2018-07-07T12:45:24.114Z,98707.16
2018-07-07T12:47:54.075Z,98715.15
2018-07-07T12:50:25.876Z,98709.77
2018-07-07T12:53:03.831Z,98711.68
2018-07-07T13:21:27.660Z,98685.43
2018-07-07T13:33:24.147Z,98708.88
2018-07-07T13:39:23.526Z,98704.30
2018-07-07T13:41:54.802Z,98693.00
2018-07-07T13:44:27.380Z,98685.45
2018-07-07T13:57:33.897Z,98689.31
2018-07-07T14:00:07.455Z,98696.34
2018-07-07T14:02:39.400Z,98693.19
2018-07-07T14:29:27.486Z,98652.73
2018-07-07T14:32:06.329Z,98665.80
2018-07-07T15:29:33.216Z,98633.16
2018-07-07T15:32:58.427Z,98631.20
2018-07-07T15:41:15.790Z,98613.43
2018-07-07T15:43:45.484Z,98623.58
2018-07-07T15:46:15.683Z,98618.80
2018-07-07T15:48:45.297Z,98621.70
2018-07-07T15:51:19.916Z,98617.88
2018-07-07T15:53:49.509Z,98608.29
2018-07-07T15:56:19.329Z,98609.62
2018-07-07T15:58:49.049Z,98607.20
2018-07-07T16:14:23.373Z,98604.05
2018-07-07T16:17:12.165Z,98600.23
2018-07-07T16:52:51.986Z,98575.84
2018-07-07T16:55:22.006Z,98581.67
2018-07-07T16:57:52.256Z,98581.97
2018-07-07T17:35:03.445Z,98575.30
2018-07-07T17:37:33.313Z,98581.70
2018-07-07T17:40:05.275Z,98577.23
2018-07-07T17:42:35.285Z,98577.39
2018-07-07T17:50:52.257Z,98574.97
2018-07-07T17:53:26.707Z,98571.68
2018-07-07T18:53:20.013Z,98571.06
2018-07-07T18:55:50.210Z,98577.06
2018-07-07T18:58:20.139Z,98578.98
2018-07-07T19:09:39.307Z,98578.89
2018-07-07T19:12:09.078Z,98586.22
2018-07-07T19:14:38.976Z,98584.34
2018-07-07T19:17:10.250Z,98584.48
2018-07-07T19:49:58.807Z,98609.94
2018-07-07T19:52:29.438Z,98606.56
2018-07-07T19:55:00.608Z,98608.36
2018-07-07T19:57:30.672Z,98615.14
2018-07-07T20:05:56.738Z,98604.61
2018-07-07T20:08:28.606Z,98607.20
2018-07-07T20:10:59.226Z,98608.59
2018-07-07T20:13:31.742Z,98606.58
2018-07-07T20:16:21.650Z,98605.92
2018-07-07T20:19:07.639Z,98603.23
2018-07-07T20:22:00.262Z,98599.55
2018-07-07T20:24:38.332Z,98612.39
2018-07-07T20:27:14.728Z,98609.70
2018-07-07T20:29:49.149Z,98609.16
2018-07-07T20:43:53.981Z,98609.20
2018-07-07T20:46:24.652Z,98611.88
2018-07-07T20:48:55.389Z,98610.06
2018-07-07T20:51:25.725Z,98607.34
2018-07-07T20:57:07.664Z,98611.31
2018-07-07T20:59:38.228Z,98605.31
2018-07-07T21:02:08.043Z,98605.20
2018-07-07T21:04:37.902Z,98604.14
2018-07-07T21:12:55.885Z,98606.88
2018-07-07T21:15:26.601Z,98610.10
2018-07-07T21:17:56.375Z,98609.61
2018-07-07T21:20:26.061Z,98611.33
2018-07-07T21:22:56.101Z,98607.53
2018-07-07T21:25:29.542Z,98614.56
2018-07-07T21:27:59.166Z,98617.16
2018-07-07T21:30:28.938Z,98618.22
2018-07-07T21:33:00.014Z,98616.78
2018-07-07T21:41:51.765Z,98621.02
2018-07-07T21:44:21.531Z,98619.30
2018-07-07T21:46:51.282Z,98622.31
2018-07-07T21:49:22.117Z,98624.20
2018-07-07T21:51:52.163Z,98623.52
2018-07-07T21:54:22.013Z,98622.72
2018-07-07T21:56:56.831Z,98624.93
2018-07-07T21:59:27.101Z,98625.23
2018-07-07T22:02:01.970Z,98619.41
2018-07-07T22:07:24.321Z,98616.76
2018-07-07T22:09:54.089Z,98616.84
2018-07-07T22:15:18.497Z,98614.45
2018-07-07T22:17:48.797Z,98620.33
2018-07-07T22:20:30.039Z,98618.92
2018-07-07T22:23:00.326Z,98619.71
2018-07-07T22:25:30.399Z,98615.22
2018-07-07T22:28:00.129Z,98604.55
2018-07-07T22:36:35.041Z,98613.27
2018-07-07T22:39:12.570Z,98611.12
2018-07-07T22:42:04.211Z,98609.70
2018-07-07T22:44:34.987Z,98601.86
2018-07-07T22:47:05.041Z,98607.96
2018-07-07T22:49:34.978Z,98608.72
2018-07-07T22:52:06.614Z,98607.23
2018-07-07T22:54:36.770Z,98607.39
2018-07-07T22:57:10.919Z,98605.09
2018-07-07T22:59:41.059Z,98602.00
2018-07-07T23:02:10.836Z,98603.75
2018-07-07T23:04:41.217Z,98605.14
2018-07-07T23:53:31.282Z,98593.91
